createdAt,value
2023-04-18T00:01:19.315Z,7.22
2023-04-18T00:03:47.942Z,7.05
2023-04-18T00:06:16.386Z,7.32
2023-04-18T00:08:44.837Z,6.78
2023-04-18T00:11:13.132Z,7.25
2023-04-18T00:13:43.086Z,7.07
2023-04-18T00:16:13.287Z,6.95
2023-04-18T00:18:41.796Z,6.93
2023-04-18T00:21:10.198Z,6.97
2023-04-18T00:23:38.569Z,7.63
2023-04-18T00:26:07.115Z,6.93
2023-04-18T00:28:35.504Z,7.45
2023-04-18T00:31:05.418Z,7.75
2023-04-18T00:33:35.089Z,7.05
2023-04-18T00:36:03.509Z,7.60
2023-04-18T00:38:31.759Z,7.50
2023-04-18T00:41:00.144Z,7.32
2023-04-18T00:43:28.566Z,7.30
2023-04-18T00:46:01.356Z,6.75
2023-04-18T00:48:31.521Z,7.05
2023-04-18T00:51:00.538Z,7.03
2023-04-18T00:53:29.888Z,7.13
2023-04-18T00:55:58.480Z,6.40
2023-04-18T00:58:27.571Z,7.32
2023-04-18T01:00:55.987Z,7.18
2023-04-18T01:03:25.550Z,7.05
2023-04-18T01:05:57.421Z,6.95
2023-04-18T01:08:27.780Z,7.40
2023-04-18T01:10:59.333Z,8.07
2023-04-18T01:13:27.712Z,7.70
2023-04-18T01:15:57.479Z,7.45
2023-04-18T01:18:26.731Z,7.75
2023-04-18T01:20:57.041Z,7.95
2023-04-18T01:23:25.824Z,7.88
2023-04-18T01:25:55.571Z,8.05
2023-04-18T01:28:27.682Z,8.25
2023-04-18T01:30:57.590Z,7.57
2023-04-18T01:33:25.903Z,8.02
2023-04-18T01:35:54.232Z,7.13
2023-04-18T01:38:22.963Z,7.68
2023-04-18T01:40:52.366Z,7.60
2023-04-18T01:43:21.869Z,6.93
2023-04-18T01:45:50.242Z,7.30
2023-04-18T01:48:18.449Z,7.72
2023-04-18T01:50:46.854Z,8.32
2023-04-18T01:53:15.070Z,7.63
2023-04-18T01:55:45.673Z,7.65
2023-04-18T01:58:15.399Z,7.30
2023-04-18T02:00:45.395Z,7.82
2023-04-18T02:03:13.912Z,7.20
2023-04-18T02:05:42.374Z,7.82
2023-04-18T02:08:11.705Z,8.13
2023-04-18T02:10:40.459Z,8.57
2023-04-18T02:13:08.716Z,7.68
2023-04-18T02:15:37.514Z,7.50
2023-04-18T02:18:09.460Z,7.85
2023-04-18T02:20:38.018Z,8.75
2023-04-18T02:23:06.878Z,8.70
2023-04-18T02:25:35.212Z,8.25
2023-04-18T02:28:03.528Z,8.18
2023-04-18T02:30:32.777Z,9.50
2023-04-18T02:33:03.785Z,8.25
2023-04-18T02:35:33.565Z,8.60
2023-04-18T02:38:01.828Z,9.00
2023-04-18T02:40:30.233Z,9.23
2023-04-18T02:43:02.045Z,8.85
2023-04-18T02:45:30.887Z,9.55
2023-04-18T02:48:02.241Z,9.80
2023-04-18T02:50:30.792Z,12.15
2023-04-18T02:53:01.062Z,12.35
2023-04-18T02:55:40.384Z,12.30
2023-04-18T02:58:09.231Z,12.23
2023-04-18T03:00:58.086Z,12.05
2023-04-18T03:03:46.248Z,12.00
2023-04-18T03:06:26.922Z,12.27
2023-04-18T03:08:57.234Z,11.80
2023-04-18T03:11:26.473Z,12.45
2023-04-18T03:13:56.384Z,12.80
2023-04-18T03:16:27.733Z,13.18
2023-04-18T03:18:56.222Z,12.32
2023-04-18T03:21:24.973Z,12.95
2023-04-18T03:23:53.850Z,12.90
2023-04-18T03:26:25.685Z,13.43
2023-04-18T03:28:55.607Z,13.40
2023-04-18T03:31:23.980Z,13.52
2023-04-18T03:33:52.591Z,14.02
2023-04-18T03:36:25.246Z,13.27
2023-04-18T03:38:56.431Z,13.90
2023-04-18T03:41:28.059Z,13.45
2023-04-18T03:43:58.572Z,13.50
2023-04-18T03:46:27.281Z,13.88
2023-04-18T03:48:57.182Z,12.95
2023-04-18T03:51:26.028Z,13.63
2023-04-18T03:53:54.367Z,12.70
2023-04-18T03:56:24.601Z,12.73
2023-04-18T03:58:58.702Z,12.35
2023-04-18T04:01:27.092Z,12.60
2023-04-18T04:03:55.824Z,12.05
2023-04-18T04:06:25.017Z,12.77
2023-04-18T04:08:53.385Z,12.30
2023-04-18T04:11:25.551Z,13.38
2023-04-18T04:13:54.527Z,12.73
2023-04-18T04:16:30.222Z,12.23
2023-04-18T04:18:58.827Z,13.02
2023-04-18T04:21:33.660Z,13.07
2023-04-18T04:24:03.095Z,13.15
2023-04-18T04:26:36.980Z,13.98
2023-04-18T04:29:11.746Z,13.85
2023-04-18T04:31:42.362Z,12.95
2023-04-18T04:34:10.749Z,13.02
2023-04-18T04:36:41.171Z,12.95
2023-04-18T04:39:11.336Z,14.45
2023-04-18T04:41:53.413Z,13.88
2023-04-18T04:44:26.142Z,14.95
2023-04-18T04:46:56.980Z,15.57
2023-04-18T04:49:31.112Z,15.25
2023-04-18T04:52:01.424Z,15.43
2023-04-18T04:54:30.704Z,14.40
2023-04-18T04:56:59.065Z,14.45
2023-04-18T04:59:27.489Z,15.68
2023-04-18T05:01:57.316Z,15.43
2023-04-18T05:04:26.163Z,15.00
2023-04-18T05:06:54.732Z,15.13
2023-04-18T05:09:23.062Z,14.38
2023-04-18T05:11:51.291Z,13.00
2023-04-18T05:14:20.765Z,13.02
2023-04-18T05:16:49.110Z,13.80
2023-04-18T05:19:18.967Z,12.77
2023-04-18T05:21:47.278Z,12.45
2023-04-18T05:24:15.822Z,13.45
2023-04-18T05:26:44.598Z,12.20
2023-04-18T05:29:12.951Z,12.63
2023-04-18T05:31:41.223Z,12.23
2023-04-18T05:34:09.550Z,11.95
2023-04-18T05:36:39.065Z,12.25
2023-04-18T05:39:08.041Z,12.02
2023-04-18T05:41:36.506Z,12.38
2023-04-18T05:44:05.865Z,11.57
2023-04-18T05:46:34.537Z,11.63
2023-04-18T05:49:03.529Z,11.90
2023-04-18T05:51:31.978Z,11.55
2023-04-18T05:54:01.767Z,12.32
2023-04-18T05:56:30.778Z,10.70
2023-04-18T05:58:59.128Z,10.32
2023-04-18T06:01:27.499Z,9.93
2023-04-18T06:03:56.322Z,9.80
2023-04-18T06:06:24.856Z,9.73
2023-04-18T06:08:53.135Z,8.50
2023-04-18T06:11:22.666Z,8.48
2023-04-18T06:13:51.109Z,8.45
2023-04-18T06:16:19.469Z,8.48
2023-04-18T06:18:47.863Z,8.68
2023-04-18T06:21:16.097Z,7.95
2023-04-18T06:23:44.483Z,7.97
2023-04-18T06:26:12.779Z,6.75
2023-04-18T06:28:42.470Z,7.00
2023-04-18T06:31:10.933Z,6.60
2023-04-18T06:33:39.291Z,5.95
2023-04-18T06:36:08.844Z,6.50
2023-04-18T06:38:37.192Z,6.90
2023-04-18T06:41:05.796Z,6.40
2023-04-18T06:43:35.811Z,6.80
2023-04-18T06:46:06.255Z,6.25
2023-04-18T06:48:34.847Z,6.45
2023-04-18T06:51:03.101Z,6.55
2023-04-18T06:53:31.443Z,6.18
2023-04-18T06:55:59.748Z,6.22
2023-04-18T06:58:28.797Z,7.30
2023-04-18T07:01:05.771Z,6.32
2023-04-18T07:03:35.664Z,6.50
2023-04-18T07:06:04.502Z,6.55
2023-04-18T07:08:34.534Z,6.90
2023-04-18T07:11:02.991Z,7.63
2023-04-18T07:13:31.535Z,6.78
2023-04-18T07:15:59.901Z,7.85
2023-04-18T07:18:37.366Z,7.07
2023-04-18T07:21:08.205Z,7.60
2023-04-18T07:23:36.890Z,7.78
2023-04-18T07:26:05.839Z,7.45
2023-04-18T07:28:34.357Z,7.05
2023-04-18T07:31:03.170Z,7.68
2023-04-18T07:33:33.630Z,9.57
2023-04-18T07:36:02.879Z,8.52
2023-04-18T07:38:34.710Z,7.78
2023-04-18T07:41:03.893Z,7.55
2023-04-18T07:43:32.240Z,7.72
2023-04-18T07:46:00.624Z,7.78
2023-04-18T07:48:29.047Z,8.40
2023-04-18T07:50:57.275Z,8.48
2023-04-18T07:53:25.845Z,8.30
2023-04-18T07:55:56.168Z,8.38
2023-04-18T07:58:24.492Z,9.35
2023-04-18T08:00:52.761Z,9.52
2023-04-18T08:03:21.300Z,8.50
2023-04-18T08:05:50.876Z,8.88
2023-04-18T08:08:19.160Z,8.65
2023-04-18T08:10:47.447Z,8.77
2023-04-18T08:13:17.989Z,8.60
2023-04-18T08:15:47.053Z,9.38
2023-04-18T08:18:15.350Z,8.90
2023-04-18T08:20:43.681Z,8.65
2023-04-18T08:23:13.320Z,8.88
2023-04-18T08:25:41.970Z,8.32
2023-04-18T08:28:11.006Z,8.60
2023-04-18T08:30:42.283Z,8.65
2023-04-18T08:33:10.882Z,8.65
2023-04-18T08:35:39.084Z,8.82
2023-04-18T08:38:07.420Z,8.52
2023-04-18T08:40:35.654Z,8.35
2023-04-18T08:43:07.942Z,9.10
2023-04-18T08:45:36.738Z,8.43
2023-04-18T08:48:07.573Z,8.35
2023-04-18T08:50:36.126Z,8.25
2023-04-18T08:53:04.367Z,8.40
2023-04-18T08:55:33.512Z,8.32
2023-04-18T08:58:02.078Z,7.95
2023-04-18T09:00:30.496Z,7.47
2023-04-18T09:02:59.128Z,7.55
2023-04-18T09:05:29.677Z,7.28
2023-04-18T09:07:57.938Z,6.70
2023-04-18T09:10:28.641Z,7.30
2023-04-18T09:12:57.870Z,6.05
2023-04-18T09:15:29.089Z,6.22
2023-04-18T09:17:59.214Z,6.22
2023-04-18T09:20:34.357Z,5.63
2023-04-18T09:23:04.811Z,5.95
2023-04-18T09:25:41.653Z,6.18
2023-04-18T09:28:24.750Z,5.90
2023-04-18T09:30:56.078Z,5.38
2023-04-18T09:33:29.099Z,4.93
2023-04-18T09:36:17.828Z,5.10
2023-04-18T09:38:46.413Z,5.43
2023-04-18T09:41:19.143Z,5.03
2023-04-18T09:43:49.088Z,4.70
2023-04-18T09:46:17.964Z,4.50
2023-04-18T09:48:46.348Z,4.68
2023-04-18T09:51:17.979Z,4.75
2023-04-18T09:53:47.638Z,3.70
2023-04-18T09:56:21.077Z,4.05
2023-04-18T09:58:56.774Z,3.83
2023-04-18T10:01:28.741Z,4.13
2023-04-18T10:03:58.795Z,4.00
2023-04-18T10:06:30.004Z,4.50
2023-04-18T10:08:58.919Z,4.05
2023-04-18T10:11:27.696Z,4.18
2023-04-18T10:13:59.481Z,3.70
2023-04-18T10:16:29.339Z,4.22
2023-04-18T10:18:58.355Z,4.05
2023-04-18T10:21:29.619Z,4.60
2023-04-18T10:23:57.935Z,4.47
2023-04-18T10:26:50.146Z,3.58
2023-04-18T10:29:18.751Z,3.83
2023-04-18T10:31:48.819Z,3.60
2023-04-18T10:34:19.377Z,3.90
2023-04-18T10:37:07.227Z,4.03
2023-04-18T10:39:49.808Z,3.55
2023-04-18T10:42:18.326Z,3.40
2023-04-18T10:45:16.547Z,3.67
2023-04-18T10:47:44.909Z,3.80
2023-04-18T10:50:13.345Z,3.63
2023-04-18T10:52:43.697Z,3.70
2023-04-18T10:55:17.582Z,3.80
2023-04-18T10:57:47.533Z,3.47
2023-04-18T11:00:18.138Z,3.28
2023-04-18T11:02:51.579Z,3.47
2023-04-18T11:05:22.961Z,3.55
2023-04-18T11:07:53.119Z,3.80
2023-04-18T11:10:22.813Z,3.47
2023-04-18T11:12:52.396Z,3.05
2023-04-18T11:15:22.479Z,3.67
2023-04-18T11:18:01.456Z,3.35
2023-04-18T11:20:30.147Z,3.25
2023-04-18T11:23:01.297Z,4.05
2023-04-18T11:25:31.885Z,4.30
2023-04-18T11:28:01.505Z,4.20
2023-04-18T11:30:36.802Z,4.60
2023-04-18T11:33:07.301Z,4.43
2023-04-18T11:35:38.809Z,4.07
2023-04-18T11:38:10.041Z,4.35
2023-04-18T11:40:38.622Z,4.35
2023-04-18T11:43:08.346Z,4.47
2023-04-18T11:45:36.804Z,4.80
2023-04-18T11:48:06.005Z,4.85
2023-04-18T11:50:37.535Z,4.45
2023-04-18T11:53:05.806Z,4.18
2023-04-18T11:55:35.667Z,4.30
2023-04-18T11:58:04.372Z,4.35
2023-04-18T12:00:34.926Z,4.40
2023-04-18T12:03:05.529Z,4.50
2023-04-18T12:05:35.298Z,5.78
2023-04-18T12:08:08.204Z,5.40
2023-04-18T12:10:37.978Z,4.82
2023-04-18T12:13:09.106Z,5.03
2023-04-18T12:15:40.433Z,5.03
2023-04-18T12:18:09.465Z,4.68
2023-04-18T12:20:39.152Z,4.18
2023-04-18T12:23:08.017Z,5.00
2023-04-18T12:25:38.313Z,4.72
2023-04-18T12:28:16.727Z,4.80
2023-04-18T12:30:44.971Z,4.72
2023-04-18T12:33:13.338Z,5.30
2023-04-18T12:35:42.413Z,4.88
2023-04-18T12:38:10.954Z,4.97
2023-04-18T12:40:41.458Z,4.47
2023-04-18T12:43:11.166Z,5.40
2023-04-18T12:45:39.432Z,5.28
2023-04-18T12:48:08.116Z,5.38
2023-04-18T12:50:36.532Z,5.43
2023-04-18T12:53:05.707Z,5.65
2023-04-18T12:55:34.236Z,6.10
2023-04-18T12:58:05.226Z,6.15
2023-04-18T13:00:33.810Z,6.45
2023-04-18T13:03:02.445Z,6.38
2023-04-18T13:05:33.699Z,6.75
2023-04-18T13:10:34.058Z,7.25
2023-04-18T13:13:03.749Z,7.78
2023-04-18T13:15:32.054Z,7.82
2023-04-18T13:18:04.664Z,7.72
2023-04-18T13:20:33.780Z,8.55
2023-04-18T13:23:03.152Z,9.43
2023-04-18T13:25:31.665Z,8.80
2023-04-18T13:28:00.849Z,8.20
2023-04-18T13:30:31.704Z,9.13
2023-04-18T13:33:00.073Z,9.60
2023-04-18T13:35:28.507Z,9.35
2023-04-18T13:37:56.810Z,9.68
2023-04-18T13:40:25.147Z,9.57
2023-04-18T13:42:53.568Z,9.10
2023-04-18T13:45:21.879Z,9.32
2023-04-18T13:47:51.687Z,9.20
2023-04-18T13:50:20.290Z,9.23
2023-04-18T13:52:49.241Z,9.70
2023-04-18T13:55:18.413Z,9.13
2023-04-18T13:57:46.933Z,10.07
2023-04-18T14:00:16.843Z,9.52
2023-04-18T14:02:45.436Z,8.98
2023-04-18T14:05:15.300Z,8.45
2023-04-18T14:07:43.616Z,9.77
2023-04-18T14:10:12.514Z,8.50
2023-04-18T14:12:40.903Z,9.18
2023-04-18T14:15:10.588Z,9.15
2023-04-18T14:17:38.882Z,9.10
2023-04-18T14:20:08.742Z,8.82
2023-04-18T14:22:38.310Z,8.50
2023-04-18T14:25:08.433Z,7.97
2023-04-18T14:27:37.370Z,7.68
2023-04-18T14:30:08.611Z,7.93
2023-04-18T14:32:37.124Z,7.90
2023-04-18T14:35:07.090Z,6.82
2023-04-18T14:37:35.440Z,7.03
2023-04-18T14:40:08.104Z,7.15
2023-04-18T14:42:36.355Z,6.85
2023-04-18T14:45:05.472Z,7.35
2023-04-18T14:47:34.573Z,7.22
2023-04-18T14:50:02.967Z,7.30
2023-04-18T14:52:31.340Z,6.57
2023-04-18T14:54:59.647Z,7.00
2023-04-18T14:57:29.285Z,7.43
2023-04-18T14:59:57.635Z,6.93
2023-04-18T15:02:26.122Z,7.68
2023-04-18T15:04:54.774Z,7.22
2023-04-18T15:07:25.694Z,7.60
2023-04-18T15:09:54.343Z,7.15
2023-04-18T15:12:22.845Z,6.93
2023-04-18T15:14:53.812Z,6.70
2023-04-18T15:17:22.214Z,6.57
2023-04-18T15:19:50.511Z,6.45
2023-04-18T15:22:18.838Z,6.40
2023-04-18T15:24:48.031Z,6.47
2023-04-18T15:27:16.711Z,6.03
2023-04-18T15:29:44.976Z,6.05
2023-04-18T15:32:14.735Z,6.43
2023-04-18T15:34:43.131Z,6.15
2023-04-18T15:37:11.516Z,5.57
2023-04-18T15:39:39.841Z,4.95
2023-04-18T15:42:08.066Z,5.40
2023-04-18T15:44:36.477Z,5.60
2023-04-18T15:47:04.804Z,5.00
2023-04-18T15:49:34.572Z,4.82
2023-04-18T15:52:06.166Z,4.80
2023-04-18T15:54:34.569Z,4.50
2023-04-18T15:57:03.448Z,4.85
2023-04-18T15:59:31.848Z,4.82
2023-04-18T16:02:00.317Z,5.20
2023-04-18T16:04:29.042Z,4.68
2023-04-18T16:06:58.610Z,4.43
2023-04-18T16:09:27.066Z,4.38
2023-04-18T16:11:56.112Z,4.75
2023-04-18T16:14:24.592Z,4.50
2023-04-18T16:16:53.667Z,4.47
2023-04-18T16:19:22.115Z,4.90
2023-04-18T16:21:51.678Z,4.40
2023-04-18T16:24:21.370Z,4.65
2023-04-18T16:26:49.580Z,4.43
2023-04-18T16:29:17.943Z,4.70
2023-04-18T16:31:46.508Z,4.43
2023-04-18T16:34:15.780Z,4.68
2023-04-18T16:36:44.232Z,4.88
2023-04-18T16:39:12.934Z,4.63
2023-04-18T16:41:42.460Z,4.70
2023-04-18T16:44:10.854Z,4.97
2023-04-18T16:46:39.146Z,5.13
2023-04-18T16:49:07.695Z,5.00
2023-04-18T16:51:37.166Z,4.60
2023-04-18T16:54:06.334Z,5.38
2023-04-18T16:56:35.252Z,5.43
2023-04-18T16:59:05.018Z,5.00
2023-04-18T17:01:33.819Z,5.13
2023-04-18T17:04:02.635Z,5.03
2023-04-18T17:06:31.995Z,4.90
2023-04-18T17:09:00.732Z,5.40
2023-04-18T17:11:30.033Z,5.18
2023-04-18T17:13:58.424Z,5.63
2023-04-18T17:16:28.018Z,5.03
2023-04-18T17:18:56.529Z,5.20
2023-04-18T17:21:24.848Z,4.70
2023-04-18T17:23:53.413Z,5.35
2023-04-18T17:26:22.565Z,5.40
2023-04-18T17:28:51.266Z,5.55
2023-04-18T17:31:19.586Z,5.57
2023-04-18T17:33:50.494Z,5.95
2023-04-18T17:36:18.926Z,5.68
2023-04-18T17:38:48.853Z,6.07
2023-04-18T17:41:18.287Z,5.65
2023-04-18T17:43:47.205Z,5.53
2023-04-18T17:46:15.979Z,5.78
2023-04-18T17:48:44.294Z,5.55
2023-04-18T17:51:16.198Z,5.80
2023-04-18T17:53:44.541Z,5.43
2023-04-18T17:56:12.784Z,5.45
2023-04-18T17:58:41.139Z,6.20
2023-04-18T18:01:15.373Z,6.05
2023-04-18T18:03:44.926Z,6.43
2023-04-18T18:06:15.389Z,5.85
2023-04-18T18:08:44.487Z,6.50
2023-04-18T18:11:12.899Z,6.28
2023-04-18T18:13:41.316Z,6.38
2023-04-18T18:16:09.827Z,6.43
2023-04-18T18:18:38.336Z,6.22
2023-04-18T18:21:06.699Z,6.22
2023-04-18T18:23:36.475Z,6.28
2023-04-18T18:26:06.482Z,7.00
2023-04-18T18:28:35.011Z,6.60
2023-04-18T18:31:03.957Z,6.38
2023-04-18T18:33:32.309Z,6.50
2023-04-18T18:36:01.409Z,6.45
2023-04-18T18:38:29.900Z,6.97
2023-04-18T18:41:03.063Z,6.85
2023-04-18T18:43:32.090Z,6.45
2023-04-18T18:46:00.388Z,7.22
2023-04-18T18:48:29.025Z,6.53
2023-04-18T18:50:58.210Z,6.28
2023-04-18T18:53:26.607Z,7.15
2023-04-18T18:55:55.121Z,7.32
2023-04-18T18:58:24.840Z,7.00
2023-04-18T19:00:53.641Z,6.28
2023-04-18T19:03:22.171Z,6.32
2023-04-18T19:05:50.445Z,7.00
2023-04-18T19:08:18.802Z,6.97
2023-04-18T19:10:47.033Z,7.32
2023-04-18T19:13:15.604Z,6.85
2023-04-18T19:15:45.291Z,6.70
2023-04-18T19:18:13.733Z,6.68
2023-04-18T19:20:42.150Z,6.82
2023-04-18T19:23:10.481Z,6.93
2023-04-18T19:25:38.776Z,7.07
2023-04-18T19:28:07.128Z,6.88
2023-04-18T19:30:35.526Z,7.03
2023-04-18T19:33:05.253Z,6.53
2023-04-18T19:35:34.803Z,6.70
2023-04-18T19:38:04.817Z,6.38
2023-04-18T19:40:33.190Z,5.68
2023-04-18T19:43:01.557Z,6.00
2023-04-18T19:45:31.223Z,6.18
2023-04-18T19:47:59.636Z,5.35
2023-04-18T19:50:29.414Z,5.57
2023-04-18T19:52:57.709Z,5.35
2023-04-18T19:55:26.396Z,5.63
2023-04-18T19:57:56.580Z,5.40
2023-04-18T20:00:24.954Z,4.75
2023-04-18T20:02:53.407Z,4.70
2023-04-18T20:05:22.399Z,4.75
2023-04-18T20:07:52.185Z,4.72
2023-04-18T20:10:22.415Z,5.10
2023-04-18T20:12:50.960Z,5.65
2023-04-18T20:15:19.462Z,5.57
2023-04-18T20:17:47.832Z,5.30
2023-04-18T20:20:16.204Z,5.40
2023-04-18T20:22:46.822Z,5.50
2023-04-18T20:25:16.652Z,6.22
2023-04-18T20:27:44.935Z,5.68
2023-04-18T20:30:13.714Z,5.93
2023-04-18T20:32:42.041Z,5.35
2023-04-18T20:35:10.633Z,5.80
2023-04-18T20:37:38.971Z,5.53
2023-04-18T20:40:10.698Z,5.53
2023-04-18T20:42:40.260Z,5.90
2023-04-18T20:45:10.966Z,4.97
2023-04-18T20:47:41.098Z,5.20
2023-04-18T20:50:10.481Z,5.30
2023-04-18T20:52:38.723Z,4.78
2023-04-18T20:55:07.618Z,4.85
2023-04-18T20:57:36.779Z,5.05
2023-04-18T21:00:08.172Z,4.72
2023-04-18T21:02:37.184Z,4.63
2023-04-18T21:05:06.231Z,4.32
2023-04-18T21:07:35.065Z,4.95
2023-04-18T21:10:03.584Z,4.35
2023-04-18T21:12:32.195Z,4.60
2023-04-18T21:15:00.573Z,4.13
2023-04-18T21:17:30.140Z,4.50
2023-04-18T21:19:58.511Z,4.22
2023-04-18T21:22:26.942Z,4.07
2023-04-18T21:24:55.223Z,3.90
2023-04-18T21:27:23.481Z,3.70
2023-04-18T21:29:51.723Z,3.63
2023-04-18T21:32:21.063Z,3.63
2023-04-18T21:34:50.615Z,3.53
2023-04-18T21:37:18.934Z,3.28
2023-04-18T21:39:47.170Z,3.88
2023-04-18T21:42:15.649Z,3.50
2023-04-18T21:44:43.861Z,3.33
2023-04-18T21:47:12.186Z,3.30
2023-04-18T21:49:55.526Z,3.45
2023-04-18T21:52:25.363Z,3.63
2023-04-18T21:54:53.653Z,3.65
2023-04-18T21:57:22.080Z,3.50
2023-04-18T21:59:50.265Z,3.67
2023-04-18T22:02:18.764Z,3.75
2023-04-18T22:04:47.981Z,3.75
2023-04-18T22:07:17.564Z,3.85
2023-04-18T22:09:47.099Z,3.80
2023-04-18T22:12:15.687Z,3.47
2023-04-18T22:14:48.073Z,4.15
2023-04-18T22:17:16.498Z,4.32
2023-04-18T22:19:44.966Z,3.90
2023-04-18T22:22:13.603Z,4.20
2023-04-18T22:24:41.812Z,4.32
2023-04-18T22:27:11.611Z,4.05
2023-04-18T22:29:39.823Z,4.07
2023-04-18T22:32:08.184Z,4.45
2023-04-18T22:34:36.387Z,4.28
2023-04-18T22:37:04.697Z,4.20
2023-04-18T22:39:33.254Z,4.13
2023-04-18T22:42:02.626Z,4.60
2023-04-18T22:44:32.157Z,4.50
2023-04-18T22:47:00.752Z,4.72
2023-04-18T22:49:29.935Z,5.00
2023-04-18T22:51:58.588Z,5.28
2023-04-18T22:54:26.837Z,5.38
2023-04-18T22:56:55.828Z,5.32
2023-04-18T22:59:23.973Z,5.50
2023-04-18T23:01:53.823Z,6.13
2023-04-18T23:04:22.500Z,5.80
2023-04-18T23:06:51.006Z,6.07
2023-04-18T23:09:19.590Z,6.70
2023-04-18T23:11:47.926Z,5.78
2023-04-18T23:14:16.737Z,6.40
2023-04-18T23:16:45.203Z,6.28
2023-04-18T23:19:14.702Z,6.78
2023-04-18T23:21:43.198Z,6.95
2023-04-18T23:24:12.182Z,6.22
2023-04-18T23:26:40.693Z,7.13
2023-04-18T23:29:08.921Z,6.80
2023-04-18T23:31:37.367Z,7.15
2023-04-18T23:34:05.735Z,7.90
2023-04-18T23:36:35.900Z,8.00
2023-04-18T23:39:05.429Z,7.57
2023-04-18T23:41:33.979Z,8.88
2023-04-18T23:44:02.435Z,8.55
2023-04-18T23:46:31.036Z,8.25
2023-04-18T23:48:59.696Z,8.05
2023-04-18T23:51:28.023Z,8.88
2023-04-18T23:53:57.781Z,8.55
2023-04-18T23:56:26.312Z,8.35
2023-04-18T23:58:54.949Z,8.25
